Armstrong, Illinois
Current Conditions -  °F | °C
As of 12:50 AM on Saturday 25 Oct 2014 (Local Time) from KTIP Reporting Station
Broken Clouds Broken Clouds  
Wind Chill: 60°   Ceiling: 7000
Heat Index: 60°   Visibility: 10mi
Dew Point: 53°   Wind: 6mph
Humidity: 79%   Direction: 200°SSW
Pressure: 29.96"   Gusts: NA
Location:  40.31°N, 87.88°W
Report Text: KTIP 250550Z AUTO 20005KT 10SM BKN070 16/12 A2996 RMK AO2 T01550119 10162 20116 402170075
Loading
Personal Weather Stations






























Interactive Weather Map New forecast layout! Learn more

10-Day Weather Forecast

Advertisements
Track Severe Weather on mobile